createdAt,value
2023-03-30T00:05:52.348Z,55.12
2023-03-30T00:12:53.949Z,55.34
2023-03-30T00:16:01.683Z,55.39
2023-03-30T00:18:53.447Z,55.61
2023-03-30T00:21:35.532Z,55.88
2023-03-30T00:24:15.900Z,56.02
2023-03-30T00:27:06.614Z,56.12
2023-03-30T00:29:44.929Z,56.30
2023-03-30T00:32:30.952Z,56.30
2023-03-30T00:35:10.552Z,56.72
2023-03-30T00:37:50.107Z,56.88
2023-03-30T00:40:28.091Z,56.93
2023-03-30T00:43:25.547Z,57.26
2023-03-30T00:46:13.582Z,57.17
2023-03-30T00:48:55.386Z,57.43
2023-03-30T00:51:44.620Z,57.41
2023-03-30T00:54:23.748Z,57.52
2023-03-30T00:57:00.180Z,57.59
2023-03-30T00:59:55.863Z,57.60
2023-03-30T01:02:50.887Z,57.73
2023-03-30T01:05:56.568Z,57.92
2023-03-30T01:08:47.364Z,57.91
2023-03-30T01:11:45.230Z,58.03
2023-03-30T01:14:27.269Z,58.16
2023-03-30T01:17:40.736Z,58.46
2023-03-30T01:21:01.368Z,58.70
2023-03-30T01:24:26.877Z,58.87
2023-03-30T01:27:27.416Z,58.65
2023-03-30T01:30:39.392Z,58.66
2023-03-30T01:34:13.139Z,58.73
2023-03-30T01:37:08.438Z,58.77
2023-03-30T01:40:09.581Z,58.80
2023-03-30T01:43:44.120Z,58.85
2023-03-30T01:47:08.084Z,58.97
2023-03-30T01:54:02.632Z,59.08
2023-03-30T01:57:07.344Z,59.18
2023-03-30T02:00:29.024Z,59.22
2023-03-30T02:03:25.236Z,59.19
2023-03-30T02:06:17.844Z,59.23
2023-03-30T02:09:10.251Z,59.37
2023-03-30T02:12:07.882Z,59.44
2023-03-30T02:15:04.967Z,59.52
2023-03-30T02:17:48.683Z,59.58
2023-03-30T02:20:24.385Z,59.52
2023-03-30T02:22:57.783Z,59.39
2023-03-30T02:25:38.890Z,59.42
2023-03-30T02:28:16.346Z,59.33
2023-03-30T02:30:52.982Z,59.51
2023-03-30T02:34:09.729Z,59.65
2023-03-30T02:37:12.358Z,59.83
2023-03-30T02:40:55.046Z,59.91
2023-03-30T02:44:39.298Z,60.15
2023-03-30T02:47:45.960Z,60.41
2023-03-30T02:51:10.436Z,60.25
2023-03-30T02:54:46.014Z,60.50
2023-03-30T02:58:05.134Z,60.71
2023-03-30T03:01:28.507Z,60.93
2023-03-30T03:04:27.505Z,60.99
2023-03-30T03:07:34.642Z,61.09
2023-03-30T03:10:58.729Z,61.15
2023-03-30T03:14:32.934Z,61.36
2023-03-30T03:20:18.012Z,61.96
2023-03-30T03:23:15.223Z,62.06
2023-03-30T03:26:55.233Z,62.27
2023-03-30T03:30:30.858Z,62.80
2023-03-30T03:33:33.023Z,63.45
2023-03-30T03:37:12.005Z,63.90
2023-03-30T03:40:08.283Z,63.99
2023-03-30T03:42:49.513Z,64.37
2023-03-30T03:46:02.809Z,64.71
2023-03-30T03:48:50.566Z,64.91
2023-03-30T03:51:38.322Z,65.05
2023-03-30T03:54:21.150Z,65.31
2023-03-30T03:57:16.742Z,65.36
2023-03-30T04:00:23.686Z,65.48
2023-03-30T04:03:11.827Z,65.52
2023-03-30T04:05:47.853Z,65.45
2023-03-30T04:08:27.919Z,65.51
2023-03-30T04:11:23.022Z,65.69
2023-03-30T04:14:41.412Z,65.72
2023-03-30T04:18:07.459Z,65.90
2023-03-30T04:21:10.238Z,65.86
2023-03-30T04:24:23.696Z,65.85
2023-03-30T04:27:49.295Z,65.89
2023-03-30T04:31:06.341Z,65.90
2023-03-30T04:34:15.428Z,66.03
2023-03-30T04:37:33.638Z,66.10
2023-03-30T04:40:37.446Z,66.10
2023-03-30T04:43:38.004Z,65.94
2023-03-30T04:46:48.884Z,66.21
2023-03-30T04:50:10.690Z,66.01
2023-03-30T04:56:49.264Z,66.04
2023-03-30T04:59:57.598Z,66.07
2023-03-30T05:03:23.695Z,65.95
2023-03-30T05:06:33.359Z,66.03
2023-03-30T05:09:38.769Z,65.86
2023-03-30T05:12:45.633Z,65.80
2023-03-30T05:15:43.793Z,66.04
2023-03-30T05:18:53.372Z,66.05
2023-03-30T05:22:12.693Z,66.28
2023-03-30T05:25:40.038Z,66.34
2023-03-30T05:29:01.810Z,66.39
2023-03-30T05:32:10.443Z,66.57
2023-03-30T05:35:33.385Z,66.71
2023-03-30T05:38:40.926Z,66.85
2023-03-30T05:41:48.826Z,66.96
2023-03-30T05:44:48.640Z,66.84
2023-03-30T05:48:17.328Z,66.73
2023-03-30T05:51:32.957Z,66.81
2023-03-30T05:54:42.872Z,66.94
2023-03-30T05:57:49.655Z,66.91
2023-03-30T06:00:52.556Z,66.88
2023-03-30T06:03:53.342Z,66.93
2023-03-30T06:06:47.401Z,66.66
2023-03-30T06:09:38.362Z,66.24
2023-03-30T06:12:50.456Z,66.08
2023-03-30T06:16:27.368Z,66.19
2023-03-30T06:19:30.377Z,66.11
2023-03-30T06:22:23.394Z,65.97
2023-03-30T06:25:20.317Z,65.43
2023-03-30T06:28:27.522Z,65.27
2023-03-30T06:31:31.828Z,65.38
2023-03-30T06:35:09.111Z,64.93
2023-03-30T06:37:56.248Z,64.65
2023-03-30T06:40:47.858Z,64.57
2023-03-30T06:44:04.012Z,64.08
2023-03-30T06:46:51.620Z,64.10
2023-03-30T06:49:34.477Z,63.93
2023-03-30T06:52:36.360Z,63.37
2023-03-30T06:55:15.678Z,62.85
2023-03-30T06:57:46.680Z,62.88
2023-03-30T07:00:23.623Z,63.05
2023-03-30T07:03:24.842Z,63.22
2023-03-30T07:06:08.628Z,63.22
2023-03-30T07:08:47.458Z,63.50
2023-03-30T07:11:33.577Z,63.42
2023-03-30T07:14:08.200Z,63.35
2023-03-30T07:16:44.861Z,63.84
2023-03-30T07:19:21.684Z,63.82
2023-03-30T07:21:59.239Z,63.64
2023-03-30T07:24:34.877Z,63.67
2023-03-30T07:27:15.358Z,63.88
2023-03-30T07:29:48.999Z,63.61
2023-03-30T07:32:24.149Z,63.31
2023-03-30T07:35:12.816Z,63.13
2023-03-30T07:37:50.729Z,63.12
2023-03-30T07:40:29.383Z,63.26
2023-03-30T07:43:06.964Z,62.72
2023-03-30T07:45:55.230Z,62.58
2023-03-30T07:48:38.135Z,62.64
2023-03-30T07:51:50.069Z,63.04
2023-03-30T07:55:22.562Z,63.10
2023-03-30T07:58:28.003Z,63.32
2023-03-30T08:01:04.236Z,63.53
2023-03-30T08:03:56.160Z,63.63
2023-03-30T08:06:38.265Z,63.81
2023-03-30T08:09:22.192Z,63.82
2023-03-30T08:11:59.876Z,63.85
2023-03-30T08:14:46.920Z,63.81
2023-03-30T08:17:29.343Z,63.74
2023-03-30T08:20:08.707Z,63.87
2023-03-30T08:22:45.344Z,64.03
2023-03-30T08:25:24.702Z,64.20
2023-03-30T08:28:03.517Z,64.60
2023-03-30T08:30:36.207Z,64.78
2023-03-30T08:33:16.830Z,64.69
2023-03-30T08:35:55.857Z,64.94
2023-03-30T08:38:33.122Z,64.88
2023-03-30T08:41:32.712Z,64.46
2023-03-30T08:44:28.826Z,63.59
2023-03-30T08:47:04.295Z,62.89
2023-03-30T08:49:56.617Z,62.87
2023-03-30T08:52:37.191Z,62.47
2023-03-30T08:55:26.133Z,62.33
2023-03-30T08:58:17.569Z,62.94
2023-03-30T09:01:37.486Z,63.24
2023-03-30T09:04:31.511Z,63.66
2023-03-30T09:07:18.236Z,62.73
2023-03-30T09:09:57.771Z,62.54
2023-03-30T09:13:00.438Z,61.37
2023-03-30T09:15:46.504Z,58.59
2023-03-30T09:18:25.746Z,57.56
2023-03-30T09:21:11.279Z,57.12
2023-03-30T09:23:47.427Z,56.54
2023-03-30T09:27:33.498Z,56.49
2023-03-30T09:30:30.161Z,56.88
2023-03-30T09:33:20.310Z,57.10
2023-03-30T09:36:11.955Z,57.18
2023-03-30T09:38:46.039Z,55.43
2023-03-30T09:42:14.457Z,53.68
2023-03-30T09:45:17.162Z,52.40
2023-03-30T09:47:58.334Z,52.10
2023-03-30T09:50:46.969Z,51.57
2023-03-30T09:53:35.505Z,52.12
2023-03-30T09:56:20.734Z,50.82
2023-03-30T09:58:52.877Z,49.65
2023-03-30T10:01:37.208Z,48.56
2023-03-30T10:04:15.538Z,49.14
2023-03-30T10:06:55.572Z,47.84
2023-03-30T10:09:27.673Z,46.97
2023-03-30T10:12:13.129Z,48.47
2023-03-30T10:15:05.626Z,47.99
2023-03-30T10:17:44.518Z,47.72
2023-03-30T10:20:30.237Z,47.57
2023-03-30T10:23:20.507Z,46.75
2023-03-30T10:26:03.767Z,46.80
2023-03-30T10:28:37.033Z,47.13
2023-03-30T10:31:18.970Z,47.93
2023-03-30T10:34:02.202Z,47.84
2023-03-30T10:36:50.810Z,48.30
2023-03-30T10:39:39.883Z,48.23
2023-03-30T10:42:26.684Z,48.12
2023-03-30T10:45:10.008Z,48.69
2023-03-30T10:47:49.024Z,49.19
2023-03-30T10:51:07.800Z,49.27
2023-03-30T10:54:48.521Z,48.99
2023-03-30T10:57:27.684Z,48.96
2023-03-30T11:00:25.820Z,49.45
2023-03-30T11:03:32.910Z,49.95
2023-03-30T11:06:23.461Z,49.62
2023-03-30T11:09:02.032Z,49.13
2023-03-30T11:11:43.865Z,49.17
2023-03-30T11:14:37.900Z,49.32
2023-03-30T11:18:00.666Z,49.08
2023-03-30T11:20:53.529Z,48.90
2023-03-30T11:23:52.449Z,49.08
2023-03-30T11:26:50.026Z,49.13
2023-03-30T11:29:39.118Z,49.27
2023-03-30T11:32:48.753Z,49.23
2023-03-30T11:35:48.326Z,49.35
2023-03-30T11:38:48.578Z,49.42
2023-03-30T11:41:38.209Z,49.66
2023-03-30T11:44:13.296Z,49.79
2023-03-30T11:47:37.798Z,49.76
2023-03-30T11:51:18.856Z,50.25
2023-03-30T11:54:25.313Z,50.84
2023-03-30T11:57:38.128Z,51.04
2023-03-30T12:00:52.078Z,51.13
2023-03-30T12:03:47.910Z,51.22
2023-03-30T12:06:52.968Z,51.22
2023-03-30T12:10:08.646Z,51.39
2023-03-30T12:12:51.360Z,51.72
2023-03-30T12:16:04.115Z,51.82
2023-03-30T12:19:39.827Z,51.99
2023-03-30T12:26:04.986Z,52.99
2023-03-30T12:32:08.579Z,53.67
2023-03-30T12:37:57.847Z,54.33
2023-03-30T12:40:52.764Z,54.42
2023-03-30T12:44:04.140Z,54.83
2023-03-30T12:47:12.206Z,54.96
2023-03-30T12:50:52.328Z,55.39
2023-03-30T12:53:55.105Z,55.53
2023-03-30T13:00:43.488Z,55.61
2023-03-30T13:03:45.403Z,55.77
2023-03-30T13:06:51.053Z,55.96
2023-03-30T13:10:23.204Z,55.88
2023-03-30T13:12:53.668Z,55.95
2023-03-30T13:15:58.043Z,55.84
2023-03-30T13:18:57.420Z,55.68
2023-03-30T13:22:01.273Z,55.37
2023-03-30T13:25:01.843Z,55.14
2023-03-30T13:27:44.517Z,54.90
2023-03-30T13:30:38.333Z,54.97
2023-03-30T13:33:37.516Z,55.06
2023-03-30T13:36:28.423Z,55.48
2023-03-30T13:39:55.695Z,55.77
2023-03-30T13:42:33.707Z,55.89
2023-03-30T13:45:43.177Z,56.11
2023-03-30T13:48:45.121Z,56.05
2023-03-30T13:51:32.202Z,56.10
2023-03-30T13:54:41.507Z,55.87
2023-03-30T13:57:48.632Z,55.92
2023-03-30T14:01:00.541Z,55.62
2023-03-30T14:03:48.158Z,55.32
2023-03-30T14:06:27.566Z,54.89
2023-03-30T14:09:35.793Z,54.90
2023-03-30T14:12:40.394Z,54.97
2023-03-30T14:18:14.876Z,54.01
2023-03-30T14:21:08.958Z,54.05
2023-03-30T14:24:16.375Z,53.91
2023-03-30T14:30:46.573Z,53.29
2023-03-30T14:33:34.591Z,52.86
2023-03-30T14:36:28.250Z,52.52
2023-03-30T14:39:36.229Z,52.18
2023-03-30T14:42:39.753Z,52.05
2023-03-30T14:46:05.906Z,51.70
2023-03-30T14:48:55.980Z,51.56
2023-03-30T14:51:53.586Z,51.52
2023-03-30T14:58:12.733Z,51.74
2023-03-30T15:01:11.236Z,51.86
2023-03-30T15:04:21.921Z,51.97
2023-03-30T15:07:19.418Z,52.10
2023-03-30T15:11:14.579Z,52.17
2023-03-30T15:14:23.660Z,52.33
2023-03-30T15:17:07.865Z,52.31
2023-03-30T15:19:47.431Z,52.37
2023-03-30T15:22:56.758Z,52.43
2023-03-30T15:25:46.542Z,52.55
2023-03-30T15:29:11.257Z,52.65
2023-03-30T15:31:46.781Z,52.64
2023-03-30T15:34:33.726Z,52.78
2023-03-30T15:37:36.251Z,52.81
2023-03-30T15:40:50.124Z,52.96
2023-03-30T15:43:39.478Z,53.22
2023-03-30T15:46:34.557Z,53.48
2023-03-30T15:49:09.210Z,53.50
2023-03-30T15:52:13.600Z,53.63
2023-03-30T15:55:02.874Z,53.87
2023-03-30T15:57:55.325Z,53.90
2023-03-30T16:01:04.137Z,54.16
2023-03-30T16:08:07.318Z,54.13
2023-03-30T16:11:13.527Z,54.36
2023-03-30T16:14:17.524Z,54.45
2023-03-30T16:20:46.947Z,54.79
2023-03-30T16:27:48.151Z,55.22
2023-03-30T16:31:06.579Z,55.65
2023-03-30T16:34:23.501Z,56.03
2023-03-30T16:37:30.654Z,56.53
2023-03-30T16:40:55.640Z,56.82
2023-03-30T16:44:18.479Z,57.07
2023-03-30T16:47:43.498Z,57.16
2023-03-30T16:50:59.952Z,57.36
2023-03-30T16:54:31.972Z,57.58
2023-03-30T16:58:02.724Z,57.81
2023-03-30T17:03:59.276Z,58.09
2023-03-30T17:07:01.652Z,58.08
2023-03-30T17:10:07.427Z,58.29
2023-03-30T17:16:31.333Z,58.77
2023-03-30T17:19:32.953Z,58.90
2023-03-30T17:22:24.332Z,58.88
2023-03-30T17:25:36.306Z,58.96
2023-03-30T17:28:43.157Z,59.17
2023-03-30T17:31:29.921Z,59.17
2023-03-30T17:34:07.519Z,59.19
2023-03-30T17:36:53.024Z,59.25
2023-03-30T17:39:42.900Z,59.32
2023-03-30T17:42:27.695Z,59.60
2023-03-30T17:45:03.893Z,59.75
2023-03-30T17:48:07.702Z,59.80
2023-03-30T17:51:04.150Z,60.09
2023-03-30T17:53:47.554Z,59.95
2023-03-30T17:56:23.434Z,60.01
2023-03-30T17:58:59.077Z,60.09
2023-03-30T18:01:56.783Z,60.23
2023-03-30T18:04:49.578Z,60.29
2023-03-30T18:08:10.562Z,60.45
2023-03-30T18:14:35.220Z,60.64
2023-03-30T18:22:15.785Z,60.98
2023-03-30T18:25:32.109Z,61.09
2023-03-30T18:28:37.025Z,61.11
2023-03-30T18:31:44.489Z,61.32
2023-03-30T18:34:48.692Z,61.21
2023-03-30T18:37:36.993Z,61.35
2023-03-30T18:40:49.563Z,61.26
2023-03-30T18:43:43.268Z,61.42
2023-03-30T18:46:36.083Z,61.33
2023-03-30T18:49:54.452Z,61.28
2023-03-30T19:07:40.432Z,61.80
2023-03-30T19:12:31.930Z,62.01
2023-03-30T19:26:58.489Z,62.49
2023-03-30T19:30:04.817Z,62.48
2023-03-30T19:32:41.092Z,62.38
2023-03-30T19:35:28.629Z,62.43
2023-03-30T19:38:08.461Z,62.31
2023-03-30T19:40:42.873Z,62.19
2023-03-30T19:43:37.892Z,62.29
2023-03-30T19:46:21.420Z,62.33
2023-03-30T19:49:13.101Z,62.31
2023-03-30T19:51:52.763Z,62.25
2023-03-30T19:54:38.669Z,62.22
2023-03-30T19:57:24.898Z,62.21
2023-03-30T20:00:39.741Z,62.11
2023-03-30T20:03:28.720Z,62.08
2023-03-30T20:06:17.176Z,61.99
2023-03-30T20:08:50.315Z,62.02
2023-03-30T20:11:38.461Z,62.13
2023-03-30T20:14:20.609Z,62.40
2023-03-30T20:17:17.225Z,62.20
2023-03-30T20:20:27.340Z,61.80
2023-03-30T20:23:31.332Z,61.74
2023-03-30T20:26:29.739Z,61.67
2023-03-30T20:29:45.626Z,61.92
2023-03-30T20:32:28.071Z,61.83
2023-03-30T20:35:23.993Z,61.71
2023-03-30T20:38:40.517Z,61.48
2023-03-30T20:41:23.762Z,61.68
2023-03-30T20:44:10.059Z,61.78
2023-03-30T20:47:27.085Z,61.81
2023-03-30T20:50:30.104Z,61.91
2023-03-30T20:53:17.708Z,61.96
2023-03-30T20:56:01.013Z,61.98
2023-03-30T20:58:38.912Z,62.10
2023-03-30T21:01:28.758Z,62.13
2023-03-30T21:04:13.771Z,62.07
2023-03-30T21:06:57.350Z,62.17
2023-03-30T21:09:44.537Z,62.31
2023-03-30T21:12:27.807Z,62.48
2023-03-30T21:15:17.715Z,62.34
2023-03-30T21:17:55.394Z,62.48
2023-03-30T21:21:21.654Z,62.52
2023-03-30T21:24:00.365Z,62.72
2023-03-30T21:26:37.908Z,62.77
2023-03-30T21:29:13.171Z,62.78
2023-03-30T21:31:49.660Z,62.97
2023-03-30T21:34:30.393Z,63.13
2023-03-30T21:37:16.300Z,63.36
2023-03-30T21:39:58.319Z,63.28
2023-03-30T21:42:34.708Z,63.57
2023-03-30T21:45:19.475Z,63.78
2023-03-30T21:48:02.637Z,63.83
2023-03-30T21:50:45.868Z,63.96
2023-03-30T21:53:35.974Z,63.99
2023-03-30T21:56:18.727Z,64.16
2023-03-30T21:59:04.585Z,64.25
2023-03-30T22:01:49.814Z,64.37
2023-03-30T22:04:34.316Z,64.55
2023-03-30T22:07:21.639Z,64.89
2023-03-30T22:10:07.551Z,64.93
2023-03-30T22:12:43.060Z,65.02
2023-03-30T22:15:47.722Z,64.81
2023-03-30T22:18:20.211Z,64.97
2023-03-30T22:21:12.481Z,65.08
2023-03-30T22:23:49.746Z,65.45
2023-03-30T22:26:32.639Z,65.58
2023-03-30T22:29:09.580Z,65.69
2023-03-30T22:31:45.336Z,65.84
2023-03-30T22:34:27.572Z,66.05
2023-03-30T22:37:02.873Z,66.16
2023-03-30T22:39:37.947Z,66.23
2023-03-30T22:42:16.945Z,66.56
2023-03-30T22:44:59.209Z,66.86
2023-03-30T22:47:53.120Z,67.06
2023-03-30T22:50:33.030Z,67.22
2023-03-30T22:53:16.312Z,67.39
2023-03-30T22:56:03.369Z,67.59
2023-03-30T22:58:42.755Z,67.77
2023-03-30T23:01:40.681Z,68.03
2023-03-30T23:04:20.174Z,68.13
2023-03-30T23:07:02.691Z,68.35
2023-03-30T23:09:39.066Z,68.48
2023-03-30T23:12:44.076Z,68.75
2023-03-30T23:15:20.761Z,68.74
2023-03-30T23:17:58.811Z,69.05
2023-03-30T23:20:30.322Z,69.00
2023-03-30T23:23:13.969Z,69.07
2023-03-30T23:25:52.966Z,69.00
2023-03-30T23:28:52.427Z,69.31
2023-03-30T23:31:40.901Z,69.40
2023-03-30T23:34:35.498Z,69.40
2023-03-30T23:37:19.039Z,69.67
2023-03-30T23:40:00.629Z,69.80
2023-03-30T23:42:44.536Z,69.89
2023-03-30T23:45:24.614Z,69.94
2023-03-30T23:48:13.636Z,69.92
2023-03-30T23:51:10.201Z,69.99
2023-03-30T23:53:55.130Z,70.08
2023-03-30T23:56:38.907Z,70.19
2023-03-30T23:59:16.848Z,70.23
